Stations météo

réclame
Mon MeteoGroup
Bealach, Grande-Bretagne (3039): Température de l'air & dewpoint: 13.12.2018 07:00:00 - 19.12.2018 07:00:00 (GMT)Bealach, Grande-Bretagne (3039): Vitesse du vent & gusts: 13.12.2018 07:00:00 - 19.12.2018 07:00:00 (GMT)Bealach, Grande-Bretagne (3039): Direction du vent: 13.12.2018 07:00:00 - 19.12.2018 07:00:00 (GMT)
Date & Time tt [°C] td [°C] ff [km/h] ff [knt] fx [km/h] fx [knt] dd
19.12.2018 07:00:00 1,4 1,4 52 28 81 44 SSE
19.12.2018 06:00:00 1,3 1,3 48 26 85 46 SSE
19.12.2018 05:00:00 1,3 1,3 37 20 89 48 SSE
19.12.2018 04:00:00 1,3 1,3 37 20 78 42 S
19.12.2018 03:00:00 1,4 1,4 31 17 61 33 S
19.12.2018 02:00:00 1,4 1,4 16 9 61 33 SSE
19.12.2018 01:00:00 1,6 1,6 34 18 78 42 SSE
19.12.2018 00:00:00 1,9 1,9 26 14 70 38 S
18.12.2018 23:00:00 1,9 1,9 26 14 67 36 SSE
18.12.2018 22:00:00 2,1 2,1 37 20 74 40 SSE
18.12.2018 21:00:00 2,3 2,3 39 21 74 40 S
18.12.2018 20:00:00 2,2 2,2 31 17 76 41 S
18.12.2018 19:00:00 2,4 2,4 41 22 72 39 S
18.12.2018 18:00:00 2,8 2,8 37 20 70 38 SSE
18.12.2018 17:00:00 2,8 2,8 41 22 70 38 SSE
18.12.2018 16:00:00 3,0 3,0 31 17 70 38 S
18.12.2018 15:00:00 2,8 2,8 29 16 85 46 SSE
18.12.2018 14:00:00 2,8 2,8 65 35 83 45 SSW
18.12.2018 13:00:00 3,4 3,4 35 19 70 38 S
18.12.2018 12:00:00 3,5 3,5 16 9 76 41 S
18.12.2018 11:00:00 3,9 3,9 31 17 93 50 S
18.12.2018 10:00:00 3,7 3,7 42 23 107 58 SSE
18.12.2018 09:00:00 5,2 5,2 26 14 63 34 WNW
18.12.2018 08:00:00 5,3 5,3 26 14 65 35 W
18.12.2018 07:00:00 6,1 6,1 24 13 117 63 NE
18.12.2018 06:00:00 7,0 7,0 26 14 104 56 ESE
18.12.2018 05:00:00 6,7 6,7 21 11 93 50 NE
18.12.2018 04:00:00 6,9 6,9 59 32 104 56 SSE
18.12.2018 03:00:00 6,8 6,8 65 35 93 50 SSE
18.12.2018 02:00:00 6,2 6,2 44 24 96 52 SE
18.12.2018 01:00:00 5,7 5,7 37 20 81 44 SE
18.12.2018 00:00:00 5,7 5,7 42 23 85 46 SE
17.12.2018 23:00:00 5,5 5,5 37 20 100 54 SE
17.12.2018 22:00:00 5,1 5,1 57 31 81 44 SSE
17.12.2018 21:00:00 4,5 4,5 26 14 96 52 SE
17.12.2018 20:00:00 3,8 3,8 24 13 67 36 ESE
17.12.2018 19:00:00 3,1 3,1 15 8 55 30 NNE
17.12.2018 18:00:00 2,6 2,6 13 7 70 38 NW
17.12.2018 17:00:00 2,5 2,5 24 13 59 32 SE
17.12.2018 16:00:00 2,2 2,1 16 9 78 42 ESE
17.12.2018 15:00:00 1,7 1,6 15 8 - - ESE
17.12.2018 14:00:00 1,6 1,4 16 9 67 36 ESE
17.12.2018 13:00:00 1,7 1,3 55 30 70 38 SSE
17.12.2018 12:00:00 1,0 0,9 21 11 61 33 SE
17.12.2018 11:00:00 1,2 1,2 39 21 70 38 SSE
17.12.2018 10:00:00 1,1 1,1 41 22 70 38 S
17.12.2018 09:00:00 1,1 1,1 26 14 63 34 S
17.12.2018 08:00:00 1,3 1,3 31 17 59 32 S
17.12.2018 07:00:00 1,3 1,3 15 8 55 30 SSE
17.12.2018 06:00:00 1,1 1,1 29 16 68 37 S
17.12.2018 05:00:00 0,6 0,6 34 18 61 33 S
17.12.2018 04:00:00 0,9 0,9 35 19 61 33 S
17.12.2018 03:00:00 0,9 0,9 41 22 57 31 S
17.12.2018 02:00:00 0,8 0,8 26 14 52 28 S
17.12.2018 01:00:00 0,6 0,6 21 11 65 35 S
17.12.2018 00:00:00 0,9 0,9 22 12 70 38 SSE
16.12.2018 23:00:00 0,8 0,8 34 18 87 47 SSE
16.12.2018 22:00:00 0,8 0,8 50 27 74 40 SSE
16.12.2018 21:00:00 0,9 0,9 42 23 72 39 SSE
16.12.2018 20:00:00 0,6 0,6 31 17 67 36 SSE
16.12.2018 19:00:00 0,6 0,6 37 20 67 36 SSE
16.12.2018 18:00:00 0,4 0,4 34 18 59 32 S
16.12.2018 17:00:00 0,4 0,4 39 21 61 33 S
16.12.2018 16:00:00 0,4 0,4 28 15 74 40 S
16.12.2018 15:00:00 -0,3 -0,3 46 25 70 38 S
16.12.2018 14:00:00 0,6 0,6 42 23 70 38 S
16.12.2018 13:00:00 0,7 0,7 34 18 80 43 S
16.12.2018 12:00:00 0,6 0,6 52 28 65 35 SSW
16.12.2018 11:00:00 0,7 0,7 52 28 72 39 SSW
16.12.2018 10:00:00 0,3 0,3 39 21 50 27 SSW
16.12.2018 09:00:00 -0,1 -0,1 42 23 57 31 WSW
16.12.2018 08:00:00 -0,4 -0,4 42 23 57 31 WSW
16.12.2018 07:00:00 -1,1 -1,1 48 26 67 36 W
16.12.2018 06:00:00 -1,0 -1,0 54 29 68 37 W
16.12.2018 05:00:00 -0,1 -0,1 21 11 61 33 WNW
16.12.2018 04:00:00 -1,0 -1,0 42 23 72 39 E
16.12.2018 03:00:00 -1,5 -1,5 50 27 78 42 ESE
16.12.2018 02:00:00 -1,4 -1,4 37 20 59 32 E
16.12.2018 01:00:00 -1,2 -1,2 42 23 72 39 ESE
16.12.2018 00:00:00 -1,2 -1,2 41 22 72 39 E
15.12.2018 23:00:00 -1,3 -1,3 39 21 78 42 ESE
15.12.2018 22:00:00 -1,6 -1,6 52 28 93 50 ESE
15.12.2018 21:00:00 -1,5 -1,5 50 27 106 57 ESE
15.12.2018 20:00:00 -1,0 -1,0 61 33 94 51 E
15.12.2018 19:00:00 -0,6 -0,6 42 23 81 44 ESE
15.12.2018 18:00:00 -0,7 -0,7 46 25 96 52 ESE
15.12.2018 17:00:00 -1,1 -1,1 37 20 83 45 ESE
15.12.2018 16:00:00 -1,0 -1,0 52 28 93 50 ESE
15.12.2018 15:00:00 -1,2 -1,8 50 27 104 56 ESE
15.12.2018 14:00:00 0,0 -1,9 61 33 120 65 ESE
15.12.2018 13:00:00 -1,1 -3,4 41 22 78 42 ESE
15.12.2018 12:00:00 0,0 -2,8 42 23 87 47 ESE
15.12.2018 11:00:00 0,6 -1,0 41 22 91 49 ESE
15.12.2018 10:00:00 0,4 -0,8 48 26 94 51 E
15.12.2018 09:00:00 -0,6 -1,2 59 32 89 48 E
15.12.2018 08:00:00 0,2 -1,6 31 17 72 39 ESE
15.12.2018 07:00:00 0,2 -1,1 42 23 80 43 E
15.12.2018 06:00:00 -0,4 -1,2 28 15 72 39 ESE
15.12.2018 05:00:00 -0,1 -1,4 28 15 61 33 SE
15.12.2018 04:00:00 -0,1 -2,7 21 11 87 47 SE
15.12.2018 03:00:00 0,2 -2,3 24 13 107 58 ESE
15.12.2018 02:00:00 -0,3 -2,7 24 13 98 53 SE
15.12.2018 01:00:00 -0,4 -2,5 22 12 74 40 SSW
15.12.2018 00:00:00 -0,7 -2,9 16 9 63 34 SSE
14.12.2018 23:00:00 -1,3 -3,9 22 12 80 43 SE
14.12.2018 22:00:00 -1,2 -4,4 18 10 50 27 E
14.12.2018 21:00:00 -1,6 -5,4 16 9 78 42 ESE
14.12.2018 20:00:00 -1,5 -5,6 13 7 87 47 WNW
14.12.2018 19:00:00 -1,5 -6,1 22 12 67 36 SE
14.12.2018 18:00:00 -1,7 -7,6 16 9 59 32 E
14.12.2018 17:00:00 -1,6 -7,9 21 11 57 31 N
14.12.2018 16:00:00 -1,3 -8,6 13 7 72 39 SSE
14.12.2018 15:00:00 -1,1 -8,9 26 14 61 33 SE
14.12.2018 14:00:00 -1,2 -9,3 29 16 80 43 SE
14.12.2018 13:00:00 -0,9 -10,2 18 10 68 37 SE
14.12.2018 12:00:00 -1,5 -9,3 22 12 74 40 SE
14.12.2018 11:00:00 -1,3 -9,2 48 26 80 43 SSE
14.12.2018 10:00:00 -1,5 -8,9 21 11 67 36 NE
14.12.2018 09:00:00 -1,8 -6,8 26 14 70 38 SSE
14.12.2018 08:00:00 -1,6 -6,9 13 7 - - NW
14.12.2018 07:00:00 -1,4 -6,8 15 8 65 35 SE
14.12.2018 06:00:00 -1,4 -6,4 9 5 59 32 WNW
14.12.2018 05:00:00 -1,2 -6,9 15 8 63 34 SSE
14.12.2018 04:00:00 -0,9 -7,1 44 24 61 33 SSE
14.12.2018 03:00:00 -0,6 -7,8 52 28 68 37 SSE
14.12.2018 02:00:00 -0,2 -7,7 26 14 80 43 SE
14.12.2018 01:00:00 0,0 -7,7 31 17 68 37 SE
14.12.2018 00:00:00 0,1 -7,1 55 30 76 41 SSE
13.12.2018 23:00:00 -0,1 -6,1 21 11 59 32 SE
13.12.2018 22:00:00 -0,2 -5,8 11 6 - - SSE
13.12.2018 21:00:00 -0,1 -6,4 16 9 93 50 NNE
13.12.2018 20:00:00 0,2 -6,6 29 16 89 48 SE
13.12.2018 19:00:00 0,2 -6,9 28 15 65 35 SE
13.12.2018 18:00:00 0,1 -6,6 21 11 74 40 E
13.12.2018 17:00:00 0,0 -6,4 39 21 74 40 SSE
13.12.2018 16:00:00 -0,3 -5,9 16 9 70 38 SE
13.12.2018 15:00:00 -0,3 -5,9 15 8 65 35 SSE
13.12.2018 14:00:00 -0,2 -6,2 13 7 - - ENE
13.12.2018 13:00:00 -0,2 -6,3 11 6 - - NNW
13.12.2018 12:00:00 -0,2 -6,3 21 11 72 39 NE
13.12.2018 11:00:00 -0,3 -6,1 46 25 89 48 E
13.12.2018 10:00:00 -0,3 -6,1 18 10 52 28 E
13.12.2018 09:00:00 -0,5 -6,4 16 9 91 49 ESE
13.12.2018 08:00:00 -0,3 -7,2 42 23 91 49 E
13.12.2018 07:00:00 -0,5 -7,2 44 24 87 47 E

tt = Température de l'air
td = dewpoint
ff = Vitesse du vent
fx = gusts
dd = Direction du vent

stations d'obs. à proximité